Time;durP1;ratioP1;P1;durP2;ratioP2;P2;SDS_P1;SDS_P2;PMS_P1;PMS_P2;Temp;Humidity;BMP_temperature;BMP_pressure;BME280_temperature;BME280_humidity;BME280_pressure;Samples;Min_cycle;Max_cycle;Signal;HPM_P1;HPM_P2
2021/06/10 00:01:28;;;;;;;;;;;;;;;;;;4971213;28;19945;-89
2021/06/10 00:03:56;;;;;;;;;;;;;;;;;;4958583;28;19948;-89
2021/06/10 00:06:24;;;;;;;;;;;;;;;;;;4959553;28;19922;-89
2021/06/10 00:08:52;;;;;;;;;;;;;;;;;;4961387;28;20391;-88
2021/06/10 00:11:22;;;;;;;;;;;;;;;;;;4958599;28;19926;-90
2021/06/10 00:13:50;;;;;;;;;;;;;;;;;;4972867;28;19929;-88
2021/06/10 00:16:17;;;;;;;;;;;;;;;;;;4953941;28;19922;-88
2021/06/10 00:18:49;;;;;;;;;;;;;;;;;;4971676;28;19926;-88
2021/06/10 00:21:17;;;;;;;;;;;;;;;;;;4974662;28;19938;-89
2021/06/10 00:23:44;;;;;;;;;;;;;;;;;;4973419;28;19930;-87
2021/06/10 00:26:12;;;;;;;;;;;;;;;;;;4964526;28;19922;-87
2021/06/10 00:28:41;;;;;;;;;;;;;;;;;;4953645;28;20384;-88
2021/06/10 00:31:09;;;;;;;;;;;;;;;;;;4967716;28;19926;-88
2021/06/10 00:33:37;;;;;;;;;;;;;;;;;;4957280;28;20376;-87
2021/06/10 00:36:05;;;;;;;;;;;;;;;;;;4953951;28;19922;-89
2021/06/10 00:38:33;;;;;;;;;;;;;;;;;;4956919;28;19937;-87
2021/06/10 00:41:01;;;;;;;;;;;;;;;;;;4949744;28;19930;-90
2021/06/10 00:43:30;;;;;;;;;;;;;;;;;;4952628;28;20300;-88
2021/06/10 00:45:59;;;;;;;;;;;;;;;;;;4984883;28;19929;-87
2021/06/10 00:48:27;;;;;;;;;;;;;;;;;;4969274;28;20384;-86
2021/06/10 00:50:55;;;;;;;;;;;;;;;;;;4966620;28;20381;-88
2021/06/10 00:53:25;;;;;;;;;;;;;;;;;;4985146;28;19933;-88
2021/06/10 00:55:54;;;;;;;;;;;;;;;;;;4967069;28;19937;-88
2021/06/10 00:58:21;;;;;;;;;;;;;;;;;;4967150;28;19926;-89
2021/06/10 01:00:49;;;;;;;;;;;;;;;;;;4968823;28;20277;-87
2021/06/10 01:03:19;;;;;;;;;;;;;;;;;;4964048;28;19923;-88
2021/06/10 01:05:47;;;;;;;;;;;;;;;;;;4952861;28;20396;-89
2021/06/10 01:08:16;;;;;;;;;;;;;;;;;;4969933;28;19922;-87
2021/06/10 01:10:47;;;;;;;;;;;;;;;;;;4964054;28;19922;-90
2021/06/10 01:13:18;;;;;;;;;;;;;;;;;;4967522;28;19941;-89
2021/06/10 01:15:46;;;;;;;;;;;;;;;;;;4968605;28;19922;-90
2021/06/10 01:18:14;;;;;;;;;;;;;;;;;;4967462;28;19931;-90
2021/06/10 01:20:43;;;;;;;;;;;;;;;;;;4976639;28;20389;-89
2021/06/10 01:23:15;;;;;;;;;;;;;;;;;;4979393;28;19921;-90
2021/06/10 01:25:48;;;;;;;;;;;;;;;;;;4968676;28;20170;-90
2021/06/10 01:28:18;;;;;;;;;;;;;;;;;;4971464;28;20018;-90
2021/06/10 01:30:47;;;;;;;;;;;;;;;;;;4972261;28;20506;-89
2021/06/10 01:33:16;;;;;;;;;;;;;;;;;;4951849;28;19945;-91
2021/06/10 01:35:45;;;;;;;;;;;;;;;;;;4967249;28;19933;-89
2021/06/10 01:38:13;;;;;;;;;;;;;;;;;;4967693;28;19923;-90
2021/06/10 01:40:41;;;;;;;;;;;;;;;;;;4945137;28;19930;-89
2021/06/10 01:43:09;;;;;;;;;;;;;;;;;;4970162;28;20380;-88
2021/06/10 01:45:38;;;;;;;;;;;;;;;;;;4968475;28;19922;-90
2021/06/10 01:48:07;;;;;;;;;;;;;;;;;;4966640;28;20383;-90
2021/06/10 01:50:35;;;;;;;;;;;;;;;;;;4953298;28;19922;-89
2021/06/10 01:53:03;;;;;;;;;;;;;;;;;;4966085;28;19929;-88
2021/06/10 01:55:30;;;;;;;;;;;;;;;;;;4953328;28;20403;-87
2021/06/10 01:57:58;;;;;;;;;;;;;;;;;;4952648;28;19949;-90
2021/06/10 02:00:26;;;;;;;;;;;;;;;;;;4969854;28;19922;-88
2021/06/10 02:02:55;;;;;;;;;;;;;;;;;;4953511;28;19922;-88
2021/06/10 02:05:26;;;;;;;;;;;;;;;;;;4966799;28;19929;-88
2021/06/10 02:07:54;;;;;;;;;;;;;;;;;;4950904;28;19922;-89
2021/06/10 02:10:22;;;;;;;;;;;;;;;;;;4947811;28;19929;-89
2021/06/10 02:12:50;;;;;;;;;;;;;;;;;;4970251;28;19926;-89
2021/06/10 02:15:18;;;;;;;;;;;;;;;;;;4949208;28;20380;-90
2021/06/10 02:17:47;;;;;;;;;;;;;;;;;;4951723;28;19922;-89
2021/06/10 02:20:17;;;;;;;;;;;;;;;;;;4952109;28;19922;-89
2021/06/10 02:22:45;;;;;;;;;;;;;;;;;;4948119;28;19922;-87
2021/06/10 02:25:13;;;;;;;;;;;;;;;;;;4966618;28;19925;-89
2021/06/10 02:27:41;;;;;;;;;;;;;;;;;;4948741;28;19926;-89
2021/06/10 02:30:10;;;;;;;;;;;;;;;;;;4965305;28;20381;-87
2021/06/10 02:32:38;;;;;;;;;;;;;;;;;;4954490;28;19938;-89
2021/06/10 02:35:06;;;;;;;;;;;;;;;;;;4960215;28;19922;-89
2021/06/10 02:37:36;;;;;;;;;;;;;;;;;;4969651;28;19926;-90
2021/06/10 02:40:05;;;;;;;;;;;;;;;;;;4954449;28;19922;-88
2021/06/10 02:42:33;;;;;;;;;;;;;;;;;;4957422;28;19921;-88
2021/06/10 02:45:01;;;;;;;;;;;;;;;;;;4953157;28;19933;-91
2021/06/10 02:47:29;;;;;;;;;;;;;;;;;;4964812;28;19945;-88
2021/06/10 02:49:57;;;;;;;;;;;;;;;;;;4966359;28;19929;-87
2021/06/10 02:52:24;;;;;;;;;;;;;;;;;;4954387;28;19929;-87
2021/06/10 02:54:54;;;;;;;;;;;;;;;;;;4970682;28;19922;-87
2021/06/10 02:57:21;;;;;;;;;;;;;;;;;;4951232;28;19929;-87
2021/06/10 02:59:49;;;;;;;;;;;;;;;;;;4970194;28;20391;-88
2021/06/10 03:02:17;;;;;;;;;;;;;;;;;;4955058;28;19922;-88
2021/06/10 03:04:45;;;;;;;;;;;;;;;;;;4967419;28;19922;-87
2021/06/10 03:07:13;;;;;;;;;;;;;;;;;;4971962;28;19922;-88
2021/06/10 03:09:41;;;;;;;;;;;;;;;;;;4973070;28;19922;-88
2021/06/10 03:12:11;;;;;;;;;;;;;;;;;;4957485;28;19922;-88
2021/06/10 03:14:39;;;;;;;;;;;;;;;;;;4985760;28;19929;-86
2021/06/10 03:17:07;;;;;;;;;;;;;;;;;;4970776;28;20300;-88
2021/06/10 03:19:35;;;;;;;;;;;;;;;;;;4956856;28;19922;-87
2021/06/10 03:22:03;;;;;;;;;;;;;;;;;;4956346;28;20308;-86
2021/06/10 03:24:31;;;;;;;;;;;;;;;;;;4960057;28;19933;-90
2021/06/10 03:26:58;;;;;;;;;;;;;;;;;;4956181;28;19922;-88
2021/06/10 03:29:28;;;;;;;;;;;;;;;;;;4966819;28;19922;-90
2021/06/10 03:31:56;;;;;;;;;;;;;;;;;;4972373;28;19929;-88
2021/06/10 03:34:24;;;;;;;;;;;;;;;;;;4974361;28;20115;-91
2021/06/10 03:36:52;;;;;;;;;;;;;;;;;;4947328;29;19930;-89
2021/06/10 03:39:20;;;;;;;;;;;;;;;;;;4974457;28;19929;-89
2021/06/10 03:41:48;;;;;;;;;;;;;;;;;;4958281;28;20391;-89
2021/06/10 03:44:17;;;;;;;;;;;;;;;;;;4968824;28;19922;-90
2021/06/10 03:46:46;;;;;;;;;;;;;;;;;;4970698;28;19922;-92
2021/06/10 03:49:14;;;;;;;;;;;;;;;;;;4955364;28;19949;-91
2021/06/10 03:51:42;;;;;;;;;;;;;;;;;;4957614;28;20277;-91
2021/06/10 03:54:10;;;;;;;;;;;;;;;;;;4955696;28;19922;-91
2021/06/10 03:56:38;;;;;;;;;;;;;;;;;;4975382;28;19929;-91
2021/06/10 03:59:05;;;;;;;;;;;;;;;;;;4963136;28;20311;-90
2021/06/10 04:01:33;;;;;;;;;;;;;;;;;;4962750;28;19945;-90
2021/06/10 04:04:03;;;;;;;;;;;;;;;;;;4955666;28;19923;-92
2021/06/10 04:06:34;;;;;;;;;;;;;;;;;;4969727;28;19930;-90
2021/06/10 04:09:02;;;;;;;;;;;;;;;;;;4957696;28;19922;-91
2021/06/10 04:11:30;;;;;;;;;;;;;;;;;;4957226;28;19933;-91
2021/06/10 04:13:58;;;;;;;;;;;;;;;;;;4953543;28;19922;-91
2021/06/10 04:16:26;;;;;;;;;;;;;;;;;;4957428;28;20388;-90
2021/06/10 04:18:54;;;;;;;;;;;;;;;;;;4989771;28;20332;-89
2021/06/10 04:21:23;;;;;;;;;;;;;;;;;;4971046;28;19929;-90
2021/06/10 04:23:51;;;;;;;;;;;;;;;;;;4954786;28;20299;-89
2021/06/10 04:26:19;;;;;;;;;;;;;;;;;;4955697;28;19930;-90
2021/06/10 04:28:48;;;;;;;;;;;;;;;;;;4967434;28;19929;-88
2021/06/10 04:31:17;;;;;;;;;;;;;;;;;;4967189;28;19922;-90
2021/06/10 04:33:45;;;;;;;;;;;;;;;;;;4977714;28;19926;-90
2021/06/10 04:36:13;;;;;;;;;;;;;;;;;;4969670;28;19961;-90
2021/06/10 04:38:42;;;;;;;;;;;;;;;;;;4963068;28;19921;-89
2021/06/10 04:41:10;;;;;;;;;;;;;;;;;;4944112;28;20273;-92
2021/06/10 04:43:38;;;;;;;;;;;;;;;;;;4955561;28;19922;-92
2021/06/10 04:46:06;;;;;;;;;;;;;;;;;;4949405;28;19926;-89
2021/06/10 04:48:34;;;;;;;;;;;;;;;;;;4940488;29;19923;-92
2021/06/10 04:51:02;;;;;;;;;;;;;;;;;;4977260;28;20111;-90
2021/06/10 04:53:30;;;;;;;;;;;;;;;;;;4944959;29;20389;-90
2021/06/10 04:55:59;;;;;;;;;;;;;;;;;;4968206;28;20313;-89
2021/06/10 04:58:27;;;;;;;;;;;;;;;;;;4954139;28;19922;-89
2021/06/10 05:00:55;;;;;;;;;;;;;;;;;;4951760;28;19937;-90
2021/06/10 05:03:23;;;;;;;;;;;;;;;;;;4953984;28;19929;-90
2021/06/10 05:05:52;;;;;;;;;;;;;;;;;;4951850;28;19922;-91
2021/06/10 05:08:20;;;;;;;;;;;;;;;;;;4965204;28;19945;-90
2021/06/10 05:10:48;;;;;;;;;;;;;;;;;;4967512;28;19923;-90
2021/06/10 05:13:17;;;;;;;;;;;;;;;;;;4952314;28;20314;-90
2021/06/10 05:15:44;;;;;;;;;;;;;;;;;;4986161;28;19922;-91
2021/06/10 05:18:12;;;;;;;;;;;;;;;;;;4953476;28;19926;-91
2021/06/10 05:20:40;;;;;;;;;;;;;;;;;;4955383;28;19922;-89
2021/06/10 05:23:08;;;;;;;;;;;;;;;;;;4969350;28;19921;-92
2021/06/10 05:25:36;;;;;;;;;;;;;;;;;;4958998;28;19926;-91
2021/06/10 05:28:04;;;;;;;;;;;;;;;;;;4949200;28;19926;-91
2021/06/10 05:30:33;;;;;;;;;;;;;;;;;;4962511;28;19926;-89
2021/06/10 05:33:01;;;;;;;;;;;;;;;;;;4963671;28;19929;-91
2021/06/10 05:35:30;;;;;;;;;;;;;;;;;;4958337;28;19929;-93
2021/06/10 05:37:58;;;;;;;;;;;;;;;;;;4979050;28;19922;-91
2021/06/10 05:40:26;;;;;;;;;;;;;;;;;;4956269;28;19922;-93
2021/06/10 05:42:54;;;;;;;;;;;;;;;;;;4974738;28;20372;-92
2021/06/10 05:45:22;;;;;;;;;;;;;;;;;;4955536;28;19930;-92
2021/06/10 05:47:51;;;;;;;;;;;;;;;;;;4965603;28;19929;-92
2021/06/10 05:50:57;;;;;;;;;;;;;;;;;;4958042;28;19922;-90
2021/06/10 05:53:50;;;;;;;;;;;;;;;;;;4942405;28;19937;-90
2021/06/10 05:56:18;;;;;;;;;;;;;;;;;;4952553;28;19922;-88
2021/06/10 05:58:46;;;;;;;;;;;;;;;;;;4953625;28;19922;-89
2021/06/10 06:01:13;;;;;;;;;;;;;;;;;;4952657;28;19937;-89
2021/06/10 06:26:15;;;;;;;;;;;;;;;;;;4919436;29;19934;-89
2021/06/10 06:29:10;;;;;;;;;;;;;;;;;;4910670;28;20322;-89
2021/06/10 06:31:38;;;;;;;;;;;;;;;;;;4938948;28;19937;-86
2021/06/10 06:34:06;;;;;;;;;;;;;;;;;;4958093;28;19929;-87
2021/06/10 06:36:34;;;;;;;;;;;;;;;;;;4953857;28;19922;-86
2021/06/10 06:39:05;;;;;;;;;;;;;;;;;;4963780;28;20384;-88
2021/06/10 06:41:33;;;;;;;;;;;;;;;;;;4945255;28;19930;-86
2021/06/10 06:44:00;;;;;;;;;;;;;;;;;;4946935;28;19929;-88
2021/06/10 06:46:30;;;;;;;;;;;;;;;;;;4968187;28;19938;-88
2021/06/10 06:48:58;;;;;;;;;;;;;;;;;;4940646;28;19930;-88
2021/06/10 06:51:26;;;;;;;;;;;;;;;;;;4961694;28;19926;-89
2021/06/10 06:53:54;;;;;;;;;;;;;;;;;;4965409;28;19926;-89
2021/06/10 06:56:22;;;;;;;;;;;;;;;;;;4967631;28;19921;-87
2021/06/10 06:58:50;;;;;;;;;;;;;;;;;;4955019;28;19930;-87
2021/06/10 07:01:18;;;;;;;;;;;;;;;;;;4961658;28;21314;-89
2021/06/10 07:03:48;;;;;;;;;;;;;;;;;;4954753;28;20319;-87
2021/06/10 07:06:15;;;;;;;;;;;;;;;;;;4956769;28;19933;-88
2021/06/10 07:08:44;;;;;;;;;;;;;;;;;;4950525;28;20369;-88
2021/06/10 07:11:12;;;;;;;;;;;;;;;;;;4964322;28;19929;-87
2021/06/10 07:13:40;;;;;;;;;;;;;;;;;;4953765;28;19922;-87
2021/06/10 07:16:08;;;;;;;;;;;;;;;;;;4962290;28;19949;-87
2021/06/10 07:18:36;;;;;;;;;;;;;;;;;;4955195;28;19945;-85
2021/06/10 07:21:05;;;;;;;;;;;;;;;;;;4951845;28;19922;-86
2021/06/10 07:23:33;;;;;;;;;;;;;;;;;;4951674;28;20285;-86
2021/06/10 07:26:01;;;;;;;;;;;;;;;;;;4949427;28;19922;-86
2021/06/10 07:28:29;;;;;;;;;;;;;;;;;;4952143;28;19923;-86
2021/06/10 07:30:57;;;;;;;;;;;;;;;;;;4962606;28;19930;-87
2021/06/10 07:33:25;;;;;;;;;;;;;;;;;;4950315;28;19926;-87
2021/06/10 07:35:53;;;;;;;;;;;;;;;;;;4963656;28;20046;-84
2021/06/10 07:38:22;;;;;;;;;;;;;;;;;;4961272;28;19930;-84
2021/06/10 07:40:50;;;;;;;;;;;;;;;;;;4971821;28;19922;-85
2021/06/10 07:43:18;;;;;;;;;;;;;;;;;;4968481;28;19930;-84
2021/06/10 07:45:47;;;;;;;;;;;;;;;;;;4952188;28;19922;-84
2021/06/10 07:48:15;;;;;;;;;;;;;;;;;;4969656;28;19922;-84
2021/06/10 07:50:44;;;;;;;;;;;;;;;;;;4959426;28;19922;-83
2021/06/10 07:53:15;;;;;;;;;;;;;;;;;;4959414;28;19922;-83
2021/06/10 07:55:45;;;;;;;;;;;;;;;;;;4958385;28;20272;-84
2021/06/10 07:58:12;;;;;;;;;;;;;;;;;;4972581;28;19922;-85
2021/06/10 08:00:40;;;;;;;;;;;;;;;;;;4976076;28;19922;-84
2021/06/10 08:03:08;;;;;;;;;;;;;;;;;;4946657;28;19923;-86
2021/06/10 08:05:36;;;;;;;;;;;;;;;;;;4959947;28;19925;-87
2021/06/10 08:08:34;;;;;;;;;;;;;;;;;;4960735;28;19921;-86
2021/06/10 08:15:47;;;;;;;;;;;;;;;;;;4928564;28;19983;-85
2021/06/10 08:18:27;;;;;;;;;;;;;;;;;;4957902;28;19925;-85
2021/06/10 08:20:55;;;;;;;;;;;;;;;;;;4955475;28;19934;-85
2021/06/10 08:23:24;;;;;;;;;;;;;;;;;;4973085;28;19922;-87
2021/06/10 08:25:56;;;;;;;;;;;;;;;;;;4981335;28;19933;-85
2021/06/10 08:28:25;;;;;;;;;;;;;;;;;;4979764;28;19922;-86
2021/06/10 08:30:54;;;;;;;;;;;;;;;;;;4981687;28;19929;-83
2021/06/10 08:33:23;;;;;;;;;;;;;;;;;;4969565;28;19926;-84
2021/06/10 08:35:52;;;;;;;;;;;;;;;;;;4958646;28;20415;-86
2021/06/10 08:38:20;;;;;;;;;;;;;;;;;;4950999;28;19925;-85
2021/06/10 08:40:52;;;;;;;;;;;;;;;;;;4949495;28;19945;-83
2021/06/10 08:43:20;;;;;;;;;;;;;;;;;;4952476;28;20273;-84
2021/06/10 08:45:48;;;;;;;;;;;;;;;;;;4975317;28;20296;-83
2021/06/10 08:48:19;;;;;;;;;;;;;;;;;;4957469;28;19937;-86
2021/06/10 08:50:47;;;;;;;;;;;;;;;;;;4968750;28;19930;-85
2021/06/10 08:53:18;;;;;;;;;;;;;;;;;;4953437;28;19938;-82
2021/06/10 08:55:49;;;;;;;;;;;;;;;;;;4964040;28;19926;-83
2021/06/10 08:58:17;;;;;;;;;;;;;;;;;;4962179;28;19922;-84
2021/06/10 09:00:46;;;;;;;;;;;;;;;;;;4962567;28;19942;-84
2021/06/10 09:03:14;;;;;;;;;;;;;;;;;;4976536;28;20391;-84
2021/06/10 09:05:59;;;;;;;;;;;;;;;;;;4961002;28;19922;-84
2021/06/10 09:08:27;;;;;;;;;;;;;;;;;;4972062;28;19922;-83
2021/06/10 09:11:10;;;;;;;;;;;;;;;;;;4974330;28;19929;-83
2021/06/10 09:13:39;;;;;;;;;;;;;;;;;;4955170;28;19930;-85
2021/06/10 09:16:22;;;;;;;;;;;;;;;;;;4975326;28;19926;-83
2021/06/10 09:18:50;;;;;;;;;;;;;;;;;;4978458;28;19929;-83
2021/06/10 09:21:27;;;;;;;;;;;;;;;;;;4956164;28;19930;-85
2021/06/10 09:23:57;;;;;;;;;;;;;;;;;;4957677;29;19926;-84
2021/06/10 09:26:32;;;;;;;;;;;;;;;;;;4959066;28;19926;-83
2021/06/10 09:29:04;;;;;;;;;;;;;;;;;;4979281;28;19922;-84
2021/06/10 09:31:32;;;;;;;;;;;;;;;;;;4961489;28;19922;-82
2021/06/10 09:34:05;;;;;;;;;;;;;;;;;;4956601;28;19933;-87
2021/06/10 09:36:40;;;;;;;;;;;;;;;;;;4967935;28;19926;-86
2021/06/10 09:39:09;;;;;;;;;;;;;;;;;;4965304;28;19923;-83
2021/06/10 09:41:52;;;;;;;;;;;;;;;;;;4970072;28;19933;-85
2021/06/10 09:44:36;;;;;;;;;;;;;;;;;;4973328;28;20002;-84
2021/06/10 09:47:04;;;;;;;;;;;;;;;;;;4985884;28;19922;-83
2021/06/10 09:49:32;;;;;;;;;;;;;;;;;;4961109;28;19933;-83
2021/06/10 09:52:02;;;;;;;;;;;;;;;;;;4951913;28;19921;-84
2021/06/10 09:54:41;;;;;;;;;;;;;;;;;;4968386;28;19945;-84
2021/06/10 09:57:09;;;;;;;;;;;;;;;;;;4974491;28;19922;-84
2021/06/10 09:59:41;;;;;;;;;;;;;;;;;;4976185;28;20495;-83
2021/06/10 10:02:16;;;;;;;;;;;;;;;;;;4959314;28;19922;-83
2021/06/10 10:05:10;;;;;;;;;;;;;;;;;;4952951;28;19922;-85
2021/06/10 10:07:40;;;;;;;;;;;;;;;;;;4947272;28;19925;-83
2021/06/10 10:10:08;;;;;;;;;;;;;;;;;;4973124;28;19937;-82
2021/06/10 10:12:39;;;;;;;;;;;;;;;;;;4960025;28;19923;-85
2021/06/10 10:15:07;;;;;;;;;;;;;;;;;;4989820;28;19926;-85
2021/06/10 10:17:35;;;;;;;;;;;;;;;;;;4979721;28;19937;-84
2021/06/10 10:20:04;;;;;;;;;;;;;;;;;;4974307;28;19937;-84
2021/06/10 10:22:32;;;;;;;;;;;;;;;;;;4958024;28;19922;-84
2021/06/10 10:25:01;;;;;;;;;;;;;;;;;;4962463;28;19922;-84
2021/06/10 10:27:29;;;;;;;;;;;;;;;;;;4960618;28;19921;-85
2021/06/10 10:29:57;;;;;;;;;;;;;;;;;;4995088;28;20598;-84
2021/06/10 10:32:25;;;;;;;;;;;;;;;;;;4958244;28;19960;-85
2021/06/10 10:35:11;;;;;;;;;;;;;;;;;;4959731;28;19944;-86
2021/06/10 10:37:39;;;;;;;;;;;;;;;;;;4977595;28;19922;-84
2021/06/10 10:40:09;;;;;;;;;;;;;;;;;;4954485;28;19925;-85
2021/06/10 10:42:38;;;;;;;;;;;;;;;;;;4943473;28;20410;-85
2021/06/10 10:45:33;;;;;;;;;;;;;;;;;;4957250;28;19930;-85
2021/06/10 10:48:14;;;;;;;;;;;;;;;;;;4965807;28;19933;-85
2021/06/10 10:50:48;;;;;;;;;;;;;;;;;;4956076;28;20335;-85
2021/06/10 10:53:19;;;;;;;;;;;;;;;;;;4947932;28;19922;-85
2021/06/10 10:56:05;;;;;;;;;;;;;;;;;;4979466;28;19933;-86
2021/06/10 10:58:35;;;;;;;;;;;;;;;;;;4950587;28;19921;-87
2021/06/10 11:01:03;;;;;;;;;;;;;;;;;;4956030;28;19923;-87
2021/06/10 11:03:32;;;;;;;;;;;;;;;;;;4968423;28;19933;-85
2021/06/10 11:06:17;;;;;;;;;;;;;;;;;;4976440;28;19929;-86
2021/06/10 11:09:14;;;;;;;;;;;;;;;;;;4962726;28;19923;-85
2021/06/10 11:12:10;;;;;;;;;;;;;;;;;;4949305;28;19934;-86
2021/06/10 11:14:45;;;;;;;;;;;;;;;;;;4958042;28;19984;-86
2021/06/10 11:17:50;;;;;;;;;;;;;;;;;;4943841;28;20301;-86
2021/06/10 11:23:35;;;;;;;;;;;;;;;;;;4969872;28;20300;-86
2021/06/10 11:26:20;;;;;;;;;;;;;;;;;;4943499;28;19923;-85
2021/06/10 11:29:00;;;;;;;;;;;;;;;;;;4964515;28;19926;-85
2021/06/10 11:31:31;;;;;;;;;;;;;;;;;;4968094;28;19926;-86
2021/06/10 11:34:31;;;;;;;;;;;;;;;;;;4973028;28;19929;-86
2021/06/10 11:37:05;;;;;;;;;;;;;;;;;;4964639;28;19957;-87
2021/06/10 11:39:35;;;;;;;;;;;;;;;;;;4966820;28;20841;-88
2021/06/10 11:45:43;;;;;;;;;;;;;;;;;;4954300;28;19998;-86
2021/06/10 11:48:11;;;;;;;;;;;;;;;;;;4973733;28;19930;-86
2021/06/10 11:50:39;;;;;;;;;;;;;;;;;;4977705;28;19929;-86
2021/06/10 11:53:09;;;;;;;;;;;;;;;;;;4975514;28;19926;-85
2021/06/10 11:55:37;;;;;;;;;;;;;;;;;;4961361;28;19922;-85
2021/06/10 11:58:06;;;;;;;;;;;;;;;;;;4978326;28;19933;-87
2021/06/10 12:00:36;;;;;;;;;;;;;;;;;;4979241;28;20389;-87
2021/06/10 12:03:07;;;;;;;;;;;;;;;;;;4963473;28;20273;-85
2021/06/10 12:05:37;;;;;;;;;;;;;;;;;;4964996;28;19929;-85
2021/06/10 12:08:11;;;;;;;;;;;;;;;;;;4964399;28;19923;-85
2021/06/10 12:10:40;;;;;;;;;;;;;;;;;;4964735;28;19922;-87
2021/06/10 12:13:07;;;;;;;;;;;;;;;;;;4980355;28;19930;-85
2021/06/10 12:15:39;;;;;;;;;;;;;;;;;;4980693;28;19929;-87
2021/06/10 12:18:09;;;;;;;;;;;;;;;;;;4979173;28;19922;-84
2021/06/10 12:20:51;;;;;;;;;;;;;;;;;;4968694;28;20363;-84
2021/06/10 12:23:20;;;;;;;;;;;;;;;;;;4993005;28;20292;-85
2021/06/10 12:25:49;;;;;;;;;;;;;;;;;;4976566;28;19926;-86
2021/06/10 12:28:42;;;;;;;;;;;;;;;;;;4960807;28;20373;-85
2021/06/10 12:31:19;;;;;;;;;;;;;;;;;;4954843;28;19922;-85
2021/06/10 12:33:56;;;;;;;;;;;;;;;;;;4958280;28;19922;-86
2021/06/10 12:36:31;;;;;;;;;;;;;;;;;;4957520;28;19929;-85
2021/06/10 12:39:00;;;;;;;;;;;;;;;;;;4964024;28;19929;-86
2021/06/10 12:41:29;;;;;;;;;;;;;;;;;;4962515;28;19929;-85
2021/06/10 12:44:07;;;;;;;;;;;;;;;;;;4962355;28;19922;-86
2021/06/10 12:46:46;;;;;;;;;;;;;;;;;;4974079;28;19922;-86
2021/06/10 12:49:17;;;;;;;;;;;;;;;;;;4976883;28;19922;-87
2021/06/10 12:51:46;;;;;;;;;;;;;;;;;;4977963;28;19944;-86
2021/06/10 12:54:15;;;;;;;;;;;;;;;;;;4962640;28;20154;-88
2021/06/10 12:59:34;;;;;;;;;;;;;;;;;;4977446;28;19922;-86
2021/06/10 13:02:12;;;;;;;;;;;;;;;;;;4989139;28;19922;-87
2021/06/10 13:04:42;;;;;;;;;;;;;;;;;;4958227;28;19926;-86
2021/06/10 13:07:10;;;;;;;;;;;;;;;;;;4958870;28;19933;-86
2021/06/10 13:09:45;;;;;;;;;;;;;;;;;;4970449;28;19922;-87
2021/06/10 13:12:14;;;;;;;;;;;;;;;;;;4968876;28;19929;-88
2021/06/10 13:14:42;;;;;;;;;;;;;;;;;;4975786;28;19924;-87
2021/06/10 13:17:12;;;;;;;;;;;;;;;;;;4973503;28;20418;-87
2021/06/10 13:19:49;;;;;;;;;;;;;;;;;;4959341;28;19922;-86
2021/06/10 13:22:17;;;;;;;;;;;;;;;;;;4955589;28;20412;-86
2021/06/10 13:24:47;;;;;;;;;;;;;;;;;;4963029;28;19926;-87
2021/06/10 13:27:16;;;;;;;;;;;;;;;;;;4977391;28;19945;-87
2021/06/10 13:29:49;;;;;;;;;;;;;;;;;;4961022;28;19925;-87
2021/06/10 13:32:21;;;;;;;;;;;;;;;;;;4971374;28;19922;-87
2021/06/10 13:34:58;;;;;;;;;;;;;;;;;;4953629;28;19941;-87
2021/06/10 13:37:28;;;;;;;;;;;;;;;;;;4956475;28;19922;-87
2021/06/10 13:40:01;;;;;;;;;;;;;;;;;;4954459;28;19929;-87
2021/06/10 13:42:32;;;;;;;;;;;;;;;;;;4957794;28;19922;-88
2021/06/10 13:45:04;;;;;;;;;;;;;;;;;;4969209;28;19922;-87
2021/06/10 13:47:32;;;;;;;;;;;;;;;;;;4955630;28;19933;-87
2021/06/10 13:50:13;;;;;;;;;;;;;;;;;;4956887;28;19929;-87
2021/06/10 13:52:42;;;;;;;;;;;;;;;;;;4954132;28;19930;-87
2021/06/10 13:55:10;;;;;;;;;;;;;;;;;;4955962;28;19922;-87
2021/06/10 13:57:38;;;;;;;;;;;;;;;;;;4952030;28;19923;-87
2021/06/10 14:00:07;;;;;;;;;;;;;;;;;;4966862;28;19923;-87
2021/06/10 14:02:37;;;;;;;;;;;;;;;;;;4973180;28;19910;-88
2021/06/10 14:05:08;;;;;;;;;;;;;;;;;;4978003;28;19910;-88
2021/06/10 14:07:36;;;;;;;;;;;;;;;;;;4977659;28;19926;-88
2021/06/10 14:10:04;;;;;;;;;;;;;;;;;;4994320;28;19906;-88
2021/06/10 14:12:32;;;;;;;;;;;;;;;;;;4960978;28;19929;-86
2021/06/10 14:15:00;;;;;;;;;;;;;;;;;;4984575;28;19930;-87
2021/06/10 14:17:29;;;;;;;;;;;;;;;;;;4986673;28;19929;-87
2021/06/10 14:19:57;;;;;;;;;;;;;;;;;;4956453;28;19922;-87
2021/06/10 14:22:26;;;;;;;;;;;;;;;;;;4958968;28;19922;-86
2021/06/10 14:24:55;;;;;;;;;;;;;;;;;;4967356;28;19930;-86
2021/06/10 14:27:26;;;;;;;;;;;;;;;;;;4956032;28;19929;-86
2021/06/10 14:30:10;;;;;;;;;;;;;;;;;;4976445;28;19929;-86
2021/06/10 14:32:38;;;;;;;;;;;;;;;;;;4955114;28;19945;-87
2021/06/10 14:35:08;;;;;;;;;;;;;;;;;;4964043;28;19922;-87
2021/06/10 14:37:41;;;;;;;;;;;;;;;;;;4947948;28;19921;-87
2021/06/10 14:40:10;;;;;;;;;;;;;;;;;;4952836;28;19933;-87
2021/06/10 14:42:39;;;;;;;;;;;;;;;;;;4948866;28;19937;-87
2021/06/10 14:45:16;;;;;;;;;;;;;;;;;;4941672;28;19933;-86
2021/06/10 14:47:45;;;;;;;;;;;;;;;;;;4958506;28;19922;-86
2021/06/10 14:50:13;;;;;;;;;;;;;;;;;;4944911;28;19973;-86
2021/06/10 14:52:43;;;;;;;;;;;;;;;;;;4968736;28;19922;-87
2021/06/10 14:55:11;;;;;;;;;;;;;;;;;;4947312;28;19930;-86
2021/06/10 14:57:39;;;;;;;;;;;;;;;;;;4957029;28;19922;-87
2021/06/10 15:00:08;;;;;;;;;;;;;;;;;;4956371;28;19930;-86
2021/06/10 15:02:36;;;;;;;;;;;;;;;;;;4961741;28;19922;-86
2021/06/10 15:05:04;;;;;;;;;;;;;;;;;;4972116;28;19926;-86
2021/06/10 15:07:32;;;;;;;;;;;;;;;;;;4968934;28;20021;-86
2021/06/10 15:10:01;;;;;;;;;;;;;;;;;;4950663;28;19926;-86
2021/06/10 15:12:29;;;;;;;;;;;;;;;;;;4973926;28;19922;-86
2021/06/10 15:14:57;;;;;;;;;;;;;;;;;;4974654;28;19922;-87
2021/06/10 15:17:25;;;;;;;;;;;;;;;;;;4972729;28;19922;-87
2021/06/10 15:19:53;;;;;;;;;;;;;;;;;;4953274;28;19922;-86
2021/06/10 15:22:26;;;;;;;;;;;;;;;;;;4969688;28;19922;-86
2021/06/10 15:24:55;;;;;;;;;;;;;;;;;;4969880;28;19922;-86
2021/06/10 15:27:24;;;;;;;;;;;;;;;;;;4948446;28;20138;-86
2021/06/10 15:29:52;;;;;;;;;;;;;;;;;;4967049;28;19930;-86
2021/06/10 15:32:20;;;;;;;;;;;;;;;;;;4987343;28;19922;-85
2021/06/10 15:34:48;;;;;;;;;;;;;;;;;;4958387;28;19922;-86
2021/06/10 15:37:16;;;;;;;;;;;;;;;;;;4970459;28;19922;-86
2021/06/10 15:39:44;;;;;;;;;;;;;;;;;;4973948;28;19922;-87
2021/06/10 15:42:11;;;;;;;;;;;;;;;;;;4972667;28;19929;-86
2021/06/10 15:48:42;;;;;;;;;;;;;;;;;;4949403;28;19933;-86
2021/06/10 15:54:38;;;;;;;;;;;;;;;;;;4954571;28;20500;-86
2021/06/10 15:57:21;;;;;;;;;;;;;;;;;;4910881;28;19937;-87
2021/06/10 16:00:08;;;;;;;;;;;;;;;;;;4937222;28;19929;-86
2021/06/10 16:02:42;;;;;;;;;;;;;;;;;;4960955;28;19922;-86
2021/06/10 16:05:20;;;;;;;;;;;;;;;;;;4955487;28;19922;-85
2021/06/10 16:07:48;;;;;;;;;;;;;;;;;;4957662;28;19922;-86
2021/06/10 16:10:16;;;;;;;;;;;;;;;;;;4966918;28;19949;-86
2021/06/10 16:12:44;;;;;;;;;;;;;;;;;;4954278;28;20428;-85
2021/06/10 16:15:12;;;;;;;;;;;;;;;;;;4958673;28;19922;-86
2021/06/10 16:17:40;;;;;;;;;;;;;;;;;;4959381;28;20177;-87
2021/06/10 16:20:09;;;;;;;;;;;;;;;;;;4955862;28;19926;-86
2021/06/10 16:22:39;;;;;;;;;;;;;;;;;;4961053;28;19922;-86
2021/06/10 16:25:08;;;;;;;;;;;;;;;;;;4961123;28;19945;-85
2021/06/10 16:27:36;;;;;;;;;;;;;;;;;;4962328;28;19929;-87
2021/06/10 16:30:04;;;;;;;;;;;;;;;;;;4954043;28;19922;-86
2021/06/10 16:32:32;;;;;;;;;;;;;;;;;;4960189;28;19928;-86
2021/06/10 16:35:00;;;;;;;;;;;;;;;;;;4956506;28;20528;-85
2021/06/10 16:37:28;;;;;;;;;;;;;;;;;;4973928;28;19929;-85
2021/06/10 16:39:57;;;;;;;;;;;;;;;;;;4956076;28;19922;-85
2021/06/10 16:42:25;;;;;;;;;;;;;;;;;;4958829;28;20277;-85
2021/06/10 16:44:53;;;;;;;;;;;;;;;;;;4956365;28;19922;-85
2021/06/10 16:47:21;;;;;;;;;;;;;;;;;;4952464;28;19938;-86
2021/06/10 16:49:49;;;;;;;;;;;;;;;;;;4970760;28;19922;-84
2021/06/10 16:52:16;;;;;;;;;;;;;;;;;;4971096;28;19921;-85
2021/06/10 16:54:45;;;;;;;;;;;;;;;;;;4972545;28;19922;-85
2021/06/10 16:57:16;;;;;;;;;;;;;;;;;;4986708;28;19928;-85
2021/06/10 16:59:47;;;;;;;;;;;;;;;;;;4970388;28;19910;-85
2021/06/10 17:02:25;;;;;;;;;;;;;;;;;;4956017;28;19940;-85
2021/06/10 17:04:52;;;;;;;;;;;;;;;;;;4983015;28;19922;-84
2021/06/10 17:07:20;;;;;;;;;;;;;;;;;;4972597;28;20043;-85
2021/06/10 17:09:48;;;;;;;;;;;;;;;;;;4959411;28;19923;-85
2021/06/10 17:12:17;;;;;;;;;;;;;;;;;;4957090;28;19945;-85
2021/06/10 17:14:46;;;;;;;;;;;;;;;;;;4984495;28;19922;-85
2021/06/10 17:17:14;;;;;;;;;;;;;;;;;;4975299;28;20398;-86
2021/06/10 17:19:42;;;;;;;;;;;;;;;;;;4956721;28;19933;-85
2021/06/10 17:22:10;;;;;;;;;;;;;;;;;;4976414;28;20331;-85
2021/06/10 17:24:38;;;;;;;;;;;;;;;;;;4984183;28;19922;-85
2021/06/10 17:27:06;;;;;;;;;;;;;;;;;;4961945;28;20246;-85
2021/06/10 17:29:36;;;;;;;;;;;;;;;;;;4959704;28;20392;-85
2021/06/10 17:32:04;;;;;;;;;;;;;;;;;;4967436;28;19922;-86
2021/06/10 17:34:32;;;;;;;;;;;;;;;;;;4955934;28;19926;-85
2021/06/10 17:37:00;;;;;;;;;;;;;;;;;;4955529;28;19921;-86
2021/06/10 17:39:28;;;;;;;;;;;;;;;;;;4958802;28;19921;-85
2021/06/10 17:41:56;;;;;;;;;;;;;;;;;;4950436;28;19923;-85
2021/06/10 17:44:24;;;;;;;;;;;;;;;;;;4968406;28;19929;-85
2021/06/10 17:46:53;;;;;;;;;;;;;;;;;;4969981;28;19922;-85
2021/06/10 17:49:21;;;;;;;;;;;;;;;;;;4953748;28;19933;-86
2021/06/10 17:51:48;;;;;;;;;;;;;;;;;;4956965;28;19925;-85